Chippewa Valley Regional Airport
KEAU : rendu visible

Aérodrome :











RETROUVEZ-NOUS SUR...

 
LOGIN :

S'inscrire | Disclaimer

   EN    FR    IT 

 









Légende :    VFR   VFR Marginal   IFR   IFR Intensif   IFR Très Intensif
Visi : 
Plafond : 
>= 8 km
>= 3000ft
5 à 8 km
1000 à 3000 ft
1500m à 5 km
500 à 1000 ft
800 à 1500m
200 à 500 ft
< 800m
< 200 ft
Symboles :   Orages  Brouillard  Fortes neiges  Fortes précipitations  Vent > 20 kt







- Altitude de l'aérodrome : 913 ft
- Code IATA : EAU


KEAU - Chippewa Valley Regional

DERNIER METAR :
  • 240356Z AUTO 03003KT 10SM OVC043 12/08 A3009 RMK AO2 SLP191 T01170083

METARs EXPIRÉS :
  • 240256Z AUTO 00000KT 10SM OVC044 13/08 A3010 RMK AO2 SLP194 T01280078 50002
  • 240156Z AUTO 00000KT 10SM OVC044 13/08 A3010 RMK AO2 SLP195 T01330078

TAF KEAU
Valide du 24 à 00h jusqu'au 25 à 00h UTC


232327Z 2400/2424 30006KT P6SM BKN045 BKN150
FM240900 10005KT P6SM VCSH BKN060
FM241400 11010G19KT 6SM SHRA BR OVC009
FM242100 15010KT P6SM VCSH OVC015
FIR KZMP / Amérique du Nord



MET'MAP, la Météo Aéronautique d'un coup d'oeil ! - Copyright ORBIFLY Décembre 2007 - Disclaimer

ORBIFLY MET'MAP TEAM :

Programmation & Développement : Alexandra Zaïnal
Conception & Développement : Baudouin d'Aumeries
Co-Programmation & Développement : Marc-Olivier Méhu
Soutien technique & logistique : Manuel Goepfert

Contact : metmap@orbifly.com




SOURCES & CREDITS :

   NOAA       Earth
Advisory